Time;durP1;ratioP1;P1;durP2;ratioP2;P2;SDS_P1;SDS_P2;PMS_P1;PMS_P2;Temp;Humidity;BMP_temperature;BMP_pressure;BME280_temperature;BME280_humidity;BME280_pressure;Samples;Min_cycle;Max_cycle;Signal;HPM_P1;HPM_P2
2023/12/01 00:02:10;;;;;;;103.95;46.95;;;0.80;97.00;;;;;;5037769;28;20017;-75
2023/12/01 00:04:36;;;;;;;90.10;44.30;;;0.70;96.90;;;;;;5043902;28;20500;-73
2023/12/01 00:07:01;;;;;;;96.47;45.35;;;0.70;96.90;;;;;;5036115;28;20045;-78
2023/12/01 00:09:27;;;;;;;93.90;45.00;;;0.70;96.90;;;;;;5033549;28;20013;-77
2023/12/01 00:11:53;;;;;;;92.22;45.47;;;0.70;96.80;;;;;;5037908;28;20467;-73
2023/12/01 00:14:18;;;;;;;89.35;44.03;;;0.70;96.70;;;;;;5039918;28;20606;-74
2023/12/01 00:16:44;;;;;;;90.10;42.47;;;0.60;96.50;;;;;;5039117;28;20421;-79
2023/12/01 00:19:09;;;;;;;90.53;43.05;;;0.60;96.60;;;;;;5036019;28;20450;-73
2023/12/01 00:21:35;;;;;;;92.93;43.72;;;0.60;96.50;;;;;;5039119;28;20056;-74
2023/12/01 00:24:01;;;;;;;88.18;43.83;;;0.50;96.50;;;;;;5033790;28;20044;-74
2023/12/01 00:26:26;;;;;;;79.68;40.17;;;0.50;96.50;;;;;;5041494;28;20044;-75
2023/12/01 00:28:52;;;;;;;85.43;42.42;;;0.60;96.60;;;;;;5035884;28;20064;-78
2023/12/01 00:31:18;;;;;;;84.00;40.92;;;0.60;96.40;;;;;;5042132;28;20044;-75
2023/12/01 00:33:43;;;;;;;93.50;43.70;;;0.60;96.40;;;;;;5040522;28;20029;-74
2023/12/01 00:36:09;;;;;;;91.97;42.92;;;0.60;96.40;;;;;;5034800;28;20052;-75
2023/12/01 00:38:35;;;;;;;76.45;39.45;;;0.60;96.20;;;;;;5036981;28;20049;-75
2023/12/01 00:41:00;;;;;;;80.45;40.67;;;0.60;96.20;;;;;;5036961;28;20045;-79
2023/12/01 00:43:26;;;;;;;78.00;39.55;;;0.60;96.20;;;;;;5033618;28;20033;-75
2023/12/01 00:45:52;;;;;;;75.30;38.90;;;0.60;96.10;;;;;;5039677;28;20102;-73
2023/12/01 00:48:17;;;;;;;76.35;39.65;;;0.60;96.10;;;;;;5039345;28;20032;-76
2023/12/01 00:50:43;;;;;;;77.13;39.38;;;0.60;95.90;;;;;;5045650;28;20447;-75
2023/12/01 00:53:09;;;;;;;77.57;37.65;;;0.50;95.60;;;;;;5055069;28;20469;-74
2023/12/01 00:55:35;;;;;;;84.00;41.25;;;0.50;95.50;;;;;;5058853;28;20041;-77
2023/12/01 00:58:01;;;;;;;78.57;40.67;;;0.50;95.60;;;;;;5057012;28;20021;-74
2023/12/01 01:00:27;;;;;;;83.47;40.65;;;0.50;95.70;;;;;;5039692;28;20397;-77
2023/12/01 01:02:53;;;;;;;80.38;39.17;;;0.60;95.70;;;;;;5041047;28;20040;-74
2023/12/01 01:05:18;;;;;;;78.70;39.58;;;0.60;95.80;;;;;;5039925;28;20048;-78
2023/12/01 01:07:45;;;;;;;71.82;36.80;;;0.60;95.70;;;;;;5041374;28;20363;-72
2023/12/01 01:10:10;;;;;;;68.93;34.72;;;0.60;95.70;;;;;;5038021;28;20034;-73
2023/12/01 01:12:36;;;;;;;75.75;36.22;;;0.60;95.70;;;;;;5037815;28;20017;-78
2023/12/01 01:15:03;;;;;;;81.05;39.08;;;0.60;95.70;;;;;;5037067;28;20467;-74
2023/12/01 01:17:32;;;;;;;77.35;37.28;;;0.50;95.60;;;;;;5034376;28;20021;-74
2023/12/01 01:19:59;;;;;;;77.85;38.95;;;0.60;95.60;;;;;;5030334;28;20068;-75
2023/12/01 01:22:25;;;;;;;73.63;37.40;;;0.60;95.60;;;;;;5031567;28;20052;-74
2023/12/01 01:24:52;;;;;;;76.18;36.25;;;0.50;95.60;;;;;;5035072;28;20060;-74
2023/12/01 01:27:17;;;;;;;75.53;35.70;;;0.60;95.60;;;;;;5039632;28;20028;-74
2023/12/01 01:29:44;;;;;;;73.13;36.47;;;0.60;95.60;;;;;;5039281;28;20152;-73
2023/12/01 01:32:11;;;;;;;73.65;37.22;;;0.50;95.40;;;;;;5041475;28;20495;-73
2023/12/01 01:34:37;;;;;;;70.60;36.30;;;0.50;95.40;;;;;;5038553;28;20033;-77
2023/12/01 01:37:02;;;;;;;69.90;35.03;;;0.50;95.50;;;;;;5042225;28;20028;-75
2023/12/01 01:39:28;;;;;;;73.78;37.65;;;0.50;95.50;;;;;;5036037;28;20099;-73
2023/12/01 01:41:55;;;;;;;84.30;38.00;;;0.50;95.50;;;;;;5041175;28;20025;-74
2023/12/01 01:44:21;;;;;;;70.32;35.13;;;0.50;95.60;;;;;;5034410;28;20537;-73
2023/12/01 01:46:47;;;;;;;76.57;35.60;;;0.50;95.40;;;;;;5037800;28;20033;-73
2023/12/01 01:49:14;;;;;;;80.13;37.15;;;0.60;95.40;;;;;;5041739;28;20030;-73
2023/12/01 01:51:40;;;;;;;72.90;34.75;;;0.60;95.40;;;;;;5042361;28;20665;-73
2023/12/01 01:54:06;;;;;;;74.70;36.25;;;0.60;95.40;;;;;;5038619;28;20121;-74
2023/12/01 01:56:33;;;;;;;73.00;34.33;;;0.60;95.40;;;;;;5038918;28;20048;-77
2023/12/01 01:59:00;;;;;;;73.78;34.17;;;0.60;95.30;;;;;;5036041;28;20025;-78
2023/12/01 02:01:25;;;;;;;71.60;34.65;;;0.60;95.40;;;;;;5036959;28;20113;-77
2023/12/01 02:03:52;;;;;;;70.53;35.72;;;0.60;95.30;;;;;;5035931;28;20033;-74
2023/12/01 02:06:19;;;;;;;78.70;36.75;;;0.60;95.10;;;;;;5034018;28;20040;-73
2023/12/01 02:08:45;;;;;;;73.30;32.92;;;0.60;94.90;;;;;;5035919;28;20025;-74
2023/12/01 02:11:13;;;;;;;76.32;36.85;;;0.60;95.00;;;;;;5044316;28;20042;-74
2023/12/01 02:13:39;;;;;;;79.68;36.30;;;0.60;95.10;;;;;;5033548;28;20033;-73
2023/12/01 02:16:07;;;;;;;80.88;35.63;;;0.60;95.00;;;;;;5033992;28;20041;-74
2023/12/01 02:18:35;;;;;;;77.72;35.78;;;0.60;94.80;;;;;;5039210;28;20513;-73
2023/12/01 02:21:01;;;;;;;80.57;36.95;;;0.60;94.90;;;;;;5033459;28;20623;-72
2023/12/01 02:23:27;;;;;;;80.07;37.95;;;0.60;95.00;;;;;;5039178;28;20489;-73
2023/12/01 02:25:53;;;;;;;83.22;38.60;;;0.60;95.00;;;;;;5042281;28;20318;-75
2023/12/01 02:28:19;;;;;;;71.45;34.72;;;0.70;95.00;;;;;;5040109;28;20101;-77
2023/12/01 02:30:53;;;;;;;76.18;36.10;;;0.70;95.00;;;;;;5038133;28;20037;-77
2023/12/01 02:33:19;;;;;;;77.07;34.33;;;0.60;94.90;;;;;;5040860;28;20337;-73
2023/12/01 02:35:49;;;;;;;68.82;34.03;;;0.70;94.90;;;;;;5038742;28;20033;-73
2023/12/01 02:38:15;;;;;;;82.93;36.42;;;0.60;94.80;;;;;;5042069;28;20013;-74
2023/12/01 02:40:49;;;;;;;76.95;36.10;;;0.60;94.80;;;;;;5033883;28;20878;-73
2023/12/01 02:43:15;;;;;;;75.00;35.97;;;0.60;94.80;;;;;;5033161;28;20022;-73
2023/12/01 02:45:41;;;;;;;77.22;34.67;;;0.60;94.70;;;;;;5033431;28;20041;-75
2023/12/01 02:48:08;;;;;;;73.90;36.47;;;0.60;94.70;;;;;;5034486;28;20463;-76
2023/12/01 02:50:34;;;;;;;74.20;34.22;;;0.60;94.70;;;;;;5036714;28;20042;-73
2023/12/01 02:53:01;;;;;;;72.32;33.50;;;0.60;94.70;;;;;;5033900;28;20029;-75
2023/12/01 02:55:27;;;;;;;72.88;35.47;;;0.60;94.70;;;;;;5041035;28;20061;-74
2023/12/01 02:57:54;;;;;;;69.88;33.28;;;0.60;94.60;;;;;;5031621;28;20020;-73
2023/12/01 03:00:20;;;;;;;71.57;32.88;;;0.40;94.30;;;;;;5036610;28;20041;-78
2023/12/01 03:02:46;;;;;;;74.25;35.05;;;0.30;94.30;;;;;;5036960;28;20021;-73
2023/12/01 03:05:12;;;;;;;76.88;33.38;;;0.40;94.50;;;;;;5029381;28;20075;-74
2023/12/01 03:07:39;;;;;;;69.38;33.10;;;0.40;94.70;;;;;;5035872;28;20025;-73
2023/12/01 03:10:09;;;;;;;69.70;32.95;;;0.40;94.80;;;;;;5033180;28;20037;-73
2023/12/01 03:12:39;;;;;;;69.43;33.33;;;0.50;94.70;;;;;;5033480;28;20025;-73
2023/12/01 03:15:07;;;;;;;63.17;32.28;;;0.50;94.70;;;;;;5031122;28;20029;-77
2023/12/01 03:17:33;;;;;;;68.07;33.33;;;0.60;94.70;;;;;;5040285;28;20127;-76
2023/12/01 03:20:00;;;;;;;67.20;33.22;;;0.60;94.80;;;;;;5036091;28;20105;-79
2023/12/01 03:22:25;;;;;;;77.03;36.78;;;0.60;94.70;;;;;;5039773;28;20068;-76
2023/12/01 03:24:53;;;;;;;74.32;36.03;;;0.70;94.70;;;;;;5034690;28;20525;-73
2023/12/01 03:27:19;;;;;;;67.88;32.50;;;0.60;94.60;;;;;;5036261;28;20033;-75
2023/12/01 03:29:45;;;;;;;73.38;36.70;;;0.60;94.60;;;;;;5037904;28;20040;-77
2023/12/01 03:32:11;;;;;;;71.53;35.67;;;0.50;94.20;;;;;;5039365;28;20029;-76
2023/12/01 03:34:37;;;;;;;70.90;33.08;;;0.40;94.20;;;;;;5036586;28;20026;-75
2023/12/01 03:37:03;;;;;;;68.85;33.50;;;0.40;94.40;;;;;;5036021;28;20087;-76
2023/12/01 03:39:30;;;;;;;68.95;31.75;;;0.50;94.50;;;;;;5029073;28;20041;-75
2023/12/01 03:41:56;;;;;;;67.85;31.67;;;0.60;94.50;;;;;;5043869;28;20410;-78
2023/12/01 03:44:21;;;;;;;65.28;32.53;;;0.60;94.50;;;;;;5037700;28;20104;-75
2023/12/01 03:46:47;;;;;;;63.60;29.35;;;0.60;94.40;;;;;;5032157;28;20124;-75
2023/12/01 03:49:13;;;;;;;62.85;30.27;;;0.60;94.40;;;;;;5041771;28;20402;-76
2023/12/01 03:51:39;;;;;;;64.18;30.27;;;0.60;94.40;;;;;;5039834;28;20032;-74
2023/12/01 03:54:05;;;;;;;68.50;31.35;;;0.50;94.30;;;;;;5039324;28;20353;-74
2023/12/01 03:56:31;;;;;;;66.53;31.33;;;0.50;94.30;;;;;;5045761;28;20037;-75
2023/12/01 03:58:57;;;;;;;64.25;30.55;;;0.50;94.40;;;;;;5041816;28;20107;-74
2023/12/01 04:01:23;;;;;;;69.28;32.05;;;0.50;94.40;;;;;;5042060;28;20141;-78
2023/12/01 04:03:49;;;;;;;64.10;29.55;;;0.50;94.40;;;;;;5039666;28;20017;-75
2023/12/01 04:06:14;;;;;;;63.88;29.90;;;0.50;94.30;;;;;;5040619;28;20044;-75
2023/12/01 04:08:40;;;;;;;59.42;30.67;;;0.40;94.20;;;;;;5035482;28;20392;-80
2023/12/01 04:11:06;;;;;;;59.00;29.40;;;0.40;94.30;;;;;;5037511;28;20466;-76
2023/12/01 04:13:32;;;;;;;62.45;28.75;;;0.40;94.40;;;;;;5042734;28;20515;-75
2023/12/01 04:15:58;;;;;;;63.92;31.10;;;0.40;94.40;;;;;;5041365;28;20091;-76
2023/12/01 04:18:27;;;;;;;63.70;29.63;;;0.50;94.40;;;;;;5039789;28;20052;-75
2023/12/01 04:20:53;;;;;;;64.80;29.45;;;0.50;94.50;;;;;;5043589;28;20037;-75
2023/12/01 04:23:19;;;;;;;58.90;29.25;;;0.50;94.40;;;;;;5041714;28;20037;-75
2023/12/01 04:25:46;;;;;;;59.58;29.30;;;0.60;94.20;;;;;;5041514;28;20055;-76
2023/12/01 04:28:13;;;;;;;60.80;28.42;;;0.60;94.30;;;;;;5039817;28;20114;-78
2023/12/01 04:30:40;;;;;;;68.93;33.00;;;0.60;94.20;;;;;;5047079;28;20033;-75
2023/12/01 04:33:06;;;;;;;62.78;29.88;;;0.60;94.10;;;;;;5042016;28;20021;-75
2023/12/01 04:35:35;;;;;;;63.20;31.25;;;0.60;94.10;;;;;;5037818;28;20036;-76
2023/12/01 04:38:05;;;;;;;62.65;30.80;;;0.60;94.10;;;;;;5042397;28;20033;-75
2023/12/01 04:40:32;;;;;;;60.90;28.90;;;0.60;94.00;;;;;;5036899;28;20049;-76
2023/12/01 04:42:58;;;;;;;67.20;31.48;;;0.70;94.00;;;;;;5041116;28;20097;-77
2023/12/01 04:45:26;;;;;;;59.97;30.23;;;0.70;93.90;;;;;;5036877;28;20037;-77
2023/12/01 04:47:54;;;;;;;66.90;31.08;;;0.70;93.90;;;;;;5034041;28;20021;-75
2023/12/01 04:50:28;;;;;;;61.03;29.70;;;0.70;94.00;;;;;;5034368;28;20135;-73
2023/12/01 04:52:55;;;;;;;64.53;31.00;;;0.80;94.00;;;;;;5031025;28;20029;-75
2023/12/01 04:55:24;;;;;;;65.30;30.00;;;0.80;94.00;;;;;;5029559;28;20508;-72
2023/12/01 04:57:49;;;;;;;60.50;29.50;;;0.80;94.00;;;;;;5039808;28;20520;-73
2023/12/01 05:00:20;;;;;;;64.35;29.65;;;0.80;93.90;;;;;;5040053;28;20120;-76
2023/12/01 05:02:47;;;;;;;69.05;32.13;;;0.80;93.90;;;;;;5040821;28;20028;-74
2023/12/01 05:05:15;;;;;;;63.15;29.58;;;0.80;93.80;;;;;;5034243;28;20075;-73
2023/12/01 05:07:40;;;;;;;61.35;30.42;;;0.80;93.70;;;;;;5030409;28;20045;-78
2023/12/01 05:10:14;;;;;;;67.32;32.92;;;0.90;93.80;;;;;;5035993;28;20098;-79
2023/12/01 05:12:43;;;;;;;69.57;33.53;;;0.90;93.50;;;;;;5031656;28;20612;-74
2023/12/01 05:15:15;;;;;;;64.38;33.78;;;0.80;93.50;;;;;;5027436;28;20049;-74
2023/12/01 05:18:02;;;;;;;64.55;30.92;;;0.80;93.40;;;;;;5037822;28;20503;-75
2023/12/01 05:20:28;;;;;;;65.22;30.88;;;0.70;93.40;;;;;;5040550;28;20508;-74
2023/12/01 05:22:59;;;;;;;61.28;30.23;;;0.70;93.50;;;;;;5040087;28;20028;-76
2023/12/01 05:25:27;;;;;;;62.05;30.13;;;0.80;93.50;;;;;;5031269;28;20516;-76
2023/12/01 05:27:55;;;;;;;63.72;31.73;;;0.80;93.40;;;;;;5037223;28;20538;-76
2023/12/01 05:30:36;;;;;;;65.03;29.52;;;0.70;93.40;;;;;;5031144;28;20116;-75
2023/12/01 05:33:02;;;;;;;62.10;31.10;;;0.80;93.40;;;;;;5037890;28;20056;-75
2023/12/01 05:35:28;;;;;;;62.38;30.48;;;0.80;93.50;;;;;;5038155;28;20099;-77
2023/12/01 05:37:56;;;;;;;58.55;29.63;;;0.80;93.40;;;;;;5033366;28;20044;-75
2023/12/01 05:40:27;;;;;;;67.65;33.30;;;0.90;93.50;;;;;;5035049;28;20052;-74
2023/12/01 05:42:54;;;;;;;59.20;30.17;;;0.90;93.50;;;;;;5029281;28;20018;-77
2023/12/01 05:45:22;;;;;;;66.90;32.78;;;0.90;93.40;;;;;;5028089;28;20037;-74
2023/12/01 05:47:50;;;;;;;62.78;30.85;;;0.90;93.30;;;;;;5036228;28;21287;-74
2023/12/01 05:50:24;;;;;;;60.58;31.38;;;0.90;93.20;;;;;;5034168;28;20037;-75
2023/12/01 05:52:52;;;;;;;67.57;31.42;;;0.90;93.20;;;;;;5034071;28;21668;-75
2023/12/01 05:55:23;;;;;;;65.45;29.92;;;0.90;93.10;;;;;;5028305;28;20248;-74
2023/12/01 05:57:50;;;;;;;62.08;31.83;;;0.90;93.10;;;;;;5036619;28;20037;-74
2023/12/01 06:00:18;;;;;;;66.07;31.70;;;0.90;93.00;;;;;;5030434;28;20042;-75
2023/12/01 06:02:48;;;;;;;62.05;32.58;;;0.90;92.90;;;;;;5040285;28;20354;-75
2023/12/01 06:05:15;;;;;;;60.67;31.35;;;0.90;93.00;;;;;;5039602;28;20077;-76
2023/12/01 06:07:49;;;;;;;61.63;31.40;;;0.90;93.00;;;;;;5039143;28;20044;-75
2023/12/01 06:10:15;;;;;;;65.38;33.05;;;0.90;92.90;;;;;;5033142;28;20120;-79
2023/12/01 06:12:41;;;;;;;69.93;34.97;;;0.90;93.00;;;;;;5036576;28;20497;-74
2023/12/01 06:15:13;;;;;;;62.67;31.80;;;0.90;92.80;;;;;;5024378;28;20041;-77
2023/12/01 06:17:41;;;;;;;62.60;31.00;;;0.90;92.90;;;;;;5041918;28;20083;-77
2023/12/01 06:20:17;;;;;;;63.67;31.65;;;1.00;92.90;;;;;;5057579;28;20049;-77
2023/12/01 06:22:50;;;;;;;61.95;31.77;;;1.00;93.00;;;;;;5063334;28;20021;-79
2023/12/01 06:25:17;;;;;;;100.38;58.30;;;1.00;93.00;;;;;;5050370;28;20030;-75
2023/12/01 06:27:43;;;;;;;86.45;52.03;;;1.00;92.80;;;;;;5030497;28;20151;-74
2023/12/01 06:30:11;;;;;;;68.93;37.15;;;1.10;92.90;;;;;;5031433;28;20117;-79
2023/12/01 06:32:39;;;;;;;66.10;33.30;;;1.10;92.90;;;;;;5036526;28;20159;-74
2023/12/01 06:35:07;;;;;;;59.00;30.67;;;1.10;92.90;;;;;;5038817;28;20033;-74
2023/12/01 06:37:33;;;;;;;59.08;31.88;;;1.10;92.80;;;;;;5040741;28;20219;-76
2023/12/01 06:39:58;;;;;;;65.43;34.20;;;1.10;92.70;;;;;;5038720;28;20589;-74
2023/12/01 06:42:24;;;;;;;57.13;31.90;;;1.10;92.80;;;;;;5033011;28;20087;-72
2023/12/01 06:44:50;;;;;;;66.30;33.45;;;1.10;92.70;;;;;;5039252;28;20044;-73
2023/12/01 06:47:15;;;;;;;61.42;33.80;;;1.10;92.60;;;;;;5039208;28;20036;-73
2023/12/01 06:49:41;;;;;;;57.20;31.77;;;1.10;92.50;;;;;;5042312;28;20033;-75
2023/12/01 06:52:08;;;;;;;63.38;35.38;;;1.10;92.20;;;;;;5031336;28;20497;-72
2023/12/01 06:54:33;;;;;;;58.42;31.98;;;1.10;92.10;;;;;;5039043;28;20021;-73
2023/12/01 06:56:59;;;;;;;60.65;33.58;;;1.20;92.10;;;;;;5040587;28;20041;-78
2023/12/01 06:59:24;;;;;;;58.25;32.58;;;1.20;92.00;;;;;;5041836;28;20028;-74
2023/12/01 07:01:50;;;;;;;59.25;32.83;;;1.20;92.00;;;;;;5043228;28;20062;-75
2023/12/01 07:04:16;;;;;;;62.13;35.30;;;1.20;92.00;;;;;;5043091;28;20037;-76
2023/12/01 07:06:46;;;;;;;67.85;34.22;;;1.10;91.50;;;;;;5041723;28;20359;-73
2023/12/01 07:09:17;;;;;;;62.95;34.70;;;1.20;91.60;;;;;;5047186;28;20044;-75
2023/12/01 07:11:43;;;;;;;63.25;34.50;;;1.10;91.60;;;;;;5041172;28;20045;-76
2023/12/01 07:14:12;;;;;;;63.45;35.65;;;1.10;91.40;;;;;;5034790;28;20505;-73
2023/12/01 07:16:41;;;;;;;64.65;34.75;;;1.20;91.20;;;;;;5044761;28;20083;-74
2023/12/01 07:19:07;;;;;;;62.50;34.55;;;1.10;90.80;;;;;;5047566;28;20028;-76
2023/12/01 07:21:33;;;;;;;63.45;35.67;;;1.10;90.80;;;;;;5037925;28;20029;-74
2023/12/01 07:24:01;;;;;;;64.80;35.40;;;1.10;91.00;;;;;;5044264;28;20029;-74
2023/12/01 07:26:27;;;;;;;59.33;34.15;;;1.10;90.90;;;;;;5041377;28;20034;-78
2023/12/01 07:28:53;;;;;;;60.40;33.88;;;1.10;91.00;;;;;;5045901;28;20549;-75
2023/12/01 07:31:19;;;;;;;60.85;33.97;;;1.10;90.80;;;;;;5039049;28;20048;-74
2023/12/01 07:33:45;;;;;;;57.97;33.47;;;1.10;90.80;;;;;;5039527;28;20032;-74
2023/12/01 07:36:11;;;;;;;62.17;35.28;;;1.20;90.70;;;;;;5050869;28;20129;-75
2023/12/01 07:38:38;;;;;;;59.95;33.83;;;1.20;90.60;;;;;;5040008;28;20049;-75
2023/12/01 07:41:03;;;;;;;63.47;33.92;;;1.20;90.40;;;;;;5036805;28;20091;-75
2023/12/01 07:43:29;;;;;;;61.25;34.05;;;1.20;90.30;;;;;;5045771;28;20101;-75
2023/12/01 07:45:57;;;;;;;62.88;33.00;;;1.20;90.30;;;;;;5046568;28;20098;-77
2023/12/01 07:48:23;;;;;;;62.65;35.00;;;1.20;90.40;;;;;;5039678;28;20469;-75
2023/12/01 07:50:49;;;;;;;65.00;37.17;;;1.30;90.40;;;;;;5041547;28;20044;-76
2023/12/01 07:53:14;;;;;;;63.58;35.80;;;1.30;90.40;;;;;;5045549;28;20035;-76
2023/12/01 07:55:43;;;;;;;62.88;34.47;;;1.30;90.40;;;;;;5037393;28;20328;-74
2023/12/01 07:58:09;;;;;;;60.17;35.28;;;1.40;90.30;;;;;;5042519;28;20059;-79
2023/12/01 08:00:40;;;;;;;62.25;34.85;;;1.40;90.30;;;;;;5034876;28;20041;-76
2023/12/01 08:03:06;;;;;;;69.10;36.38;;;1.40;90.40;;;;;;5033096;28;20029;-80
2023/12/01 08:05:32;;;;;;;69.10;38.10;;;1.40;90.20;;;;;;5045189;28;20083;-75
2023/12/01 08:07:58;;;;;;;61.80;35.67;;;1.30;90.30;;;;;;5038892;28;20029;-79
2023/12/01 08:10:24;;;;;;;56.72;34.05;;;1.20;90.50;;;;;;5044747;28;20167;-74
2023/12/01 08:12:51;;;;;;;61.42;34.67;;;1.10;90.60;;;;;;5042540;28;20021;-74
2023/12/01 08:15:17;;;;;;;56.85;33.22;;;1.10;90.80;;;;;;5034610;28;20057;-74
2023/12/01 08:17:44;;;;;;;58.10;33.80;;;1.10;91.00;;;;;;5038359;28;20377;-74
2023/12/01 08:20:11;;;;;;;62.35;34.65;;;1.10;90.70;;;;;;5043960;28;20371;-76
2023/12/01 08:22:43;;;;;;;56.35;32.88;;;1.10;90.60;;;;;;5038908;28;20045;-76
2023/12/01 08:25:09;;;;;;;56.55;32.45;;;1.10;90.50;;;;;;5041959;28;20103;-74
2023/12/01 08:27:35;;;;;;;58.45;32.22;;;1.10;90.60;;;;;;5036411;28;20072;-75
2023/12/01 08:30:02;;;;;;;56.03;30.35;;;1.00;90.70;;;;;;5038159;28;20183;-74
2023/12/01 08:32:28;;;;;;;57.55;32.13;;;1.00;90.80;;;;;;5041597;28;20028;-74
2023/12/01 08:34:54;;;;;;;52.80;29.77;;;1.00;91.00;;;;;;5042950;28;20051;-74
2023/12/01 08:37:20;;;;;;;51.92;28.67;;;0.90;90.60;;;;;;5045125;28;20633;-76
2023/12/01 08:39:46;;;;;;;52.20;27.38;;;0.90;90.60;;;;;;5042023;28;20137;-74
2023/12/01 08:42:12;;;;;;;51.80;28.58;;;0.80;90.10;;;;;;5038116;28;20104;-77
2023/12/01 08:44:37;;;;;;;49.03;27.33;;;0.80;90.00;;;;;;5040240;28;20024;-75
2023/12/01 08:47:03;;;;;;;50.95;27.45;;;0.70;89.80;;;;;;5032859;28;20036;-74
2023/12/01 08:49:29;;;;;;;50.78;26.77;;;0.90;90.10;;;;;;5041798;28;20332;-73
2023/12/01 08:51:55;;;;;;;48.78;27.25;;;1.00;90.00;;;;;;5041803;28;20057;-73
2023/12/01 08:54:22;;;;;;;50.58;27.92;;;1.00;90.00;;;;;;5038965;28;20139;-75
2023/12/01 08:56:48;;;;;;;50.90;28.58;;;1.10;89.90;;;;;;5030630;28;20512;-78
2023/12/01 08:59:14;;;;;;;49.92;26.65;;;1.10;89.80;;;;;;5037837;28;20250;-76
2023/12/01 09:01:40;;;;;;;44.50;26.17;;;1.10;89.60;;;;;;5035397;28;20053;-77
2023/12/01 09:04:06;;;;;;;45.50;25.30;;;1.20;89.70;;;;;;5045217;28;20411;-74
2023/12/01 09:06:33;;;;;;;50.17;26.85;;;1.20;89.20;;;;;;5042271;28;20059;-75
2023/12/01 09:08:59;;;;;;;48.95;25.67;;;1.20;89.20;;;;;;5041896;28;20600;-75
2023/12/01 09:11:25;;;;;;;44.70;25.00;;;1.30;89.40;;;;;;5033219;28;20025;-74
2023/12/01 09:13:51;;;;;;;45.03;24.98;;;1.40;89.40;;;;;;5043140;28;20128;-73
2023/12/01 09:16:17;;;;;;;45.53;26.88;;;1.40;89.60;;;;;;5039456;28;20489;-71
2023/12/01 09:18:43;;;;;;;49.58;26.50;;;1.50;89.60;;;;;;5038942;28;20079;-71
2023/12/01 09:21:08;;;;;;;48.08;26.90;;;1.50;89.40;;;;;;5042742;28;20065;-73
2023/12/01 09:23:39;;;;;;;51.65;27.70;;;1.50;89.20;;;;;;5035127;28;20033;-72
2023/12/01 09:26:06;;;;;;;50.63;26.88;;;1.50;89.30;;;;;;5033644;28;20515;-73
2023/12/01 09:28:33;;;;;;;49.67;27.65;;;1.40;89.30;;;;;;5038454;28;20021;-74
2023/12/01 09:31:01;;;;;;;52.33;28.02;;;1.20;89.00;;;;;;5041175;28;20029;-72
2023/12/01 09:33:27;;;;;;;52.30;27.25;;;1.10;89.60;;;;;;5041001;28;20033;-72
2023/12/01 09:35:53;;;;;;;49.08;26.70;;;1.10;90.10;;;;;;5036336;28;20037;-73
2023/12/01 09:38:18;;;;;;;52.78;27.17;;;0.90;89.90;;;;;;5037332;28;20025;-73
2023/12/01 09:40:44;;;;;;;49.33;26.35;;;0.80;90.10;;;;;;5039079;28;20126;-75
2023/12/01 09:43:13;;;;;;;52.92;25.90;;;0.70;90.10;;;;;;5035636;28;20026;-75
2023/12/01 09:45:38;;;;;;;45.85;24.63;;;0.80;90.30;;;;;;5036940;28;20064;-72
2023/12/01 09:48:08;;;;;;;49.92;25.63;;;0.90;90.30;;;;;;5037296;28;20126;-74
2023/12/01 09:50:34;;;;;;;52.63;27.33;;;1.00;90.10;;;;;;5037359;28;20095;-73
2023/12/01 09:53:00;;;;;;;55.63;26.83;;;1.10;90.10;;;;;;5040540;28;20463;-72
2023/12/01 09:55:25;;;;;;;50.75;27.25;;;1.20;90.00;;;;;;5042373;28;20029;-73
2023/12/01 09:57:53;;;;;;;52.90;27.90;;;1.20;89.80;;;;;;5041963;28;20021;-74
2023/12/01 10:00:19;;;;;;;49.78;27.02;;;1.30;89.80;;;;;;5036158;28;20549;-72
2023/12/01 10:02:45;;;;;;;50.58;25.85;;;1.30;89.50;;;;;;5043453;28;20029;-73
2023/12/01 10:05:18;;;;;;;51.15;26.13;;;1.30;89.50;;;;;;5042985;28;20545;-76
2023/12/01 10:07:44;;;;;;;48.97;25.65;;;1.40;89.30;;;;;;5042839;28;20144;-74
2023/12/01 10:10:24;;;;;;;48.92;25.77;;;1.40;89.30;;;;;;5035946;28;20076;-72
2023/12/01 10:12:55;;;;;;;57.22;29.35;;;1.40;89.40;;;;;;5039431;28;20028;-73
2023/12/01 10:15:21;;;;;;;56.75;28.13;;;1.10;89.00;;;;;;5033404;28;20438;-73
2023/12/01 10:17:46;;;;;;;56.00;28.05;;;0.90;89.70;;;;;;5044628;28;20184;-73
2023/12/01 10:20:20;;;;;;;57.45;27.67;;;0.80;89.70;;;;;;5041145;28;20386;-73
2023/12/01 10:22:46;;;;;;;52.13;26.37;;;0.80;89.90;;;;;;5043091;28;20457;-74
2023/12/01 10:25:12;;;;;;;54.17;27.33;;;0.80;90.00;;;;;;5044781;28;20033;-75
2023/12/01 10:27:39;;;;;;;52.28;26.42;;;0.80;89.90;;;;;;5043802;28;20159;-74
2023/12/01 10:30:13;;;;;;;52.83;27.02;;;0.70;90.00;;;;;;5043597;28;20037;-74
2023/12/01 10:32:40;;;;;;;54.60;28.20;;;0.70;89.80;;;;;;5048720;28;20096;-73
2023/12/01 10:35:06;;;;;;;54.03;27.83;;;0.90;90.20;;;;;;5042357;28;20041;-75
2023/12/01 10:37:34;;;;;;;54.15;26.92;;;1.00;90.00;;;;;;5044794;28;20025;-74
2023/12/01 10:40:05;;;;;;;54.30;27.83;;;1.00;89.90;;;;;;5045833;28;20048;-73
2023/12/01 10:42:33;;;;;;;49.03;23.60;;;0.80;89.70;;;;;;5039598;28;20030;-76
2023/12/01 10:45:01;;;;;;;51.90;23.65;;;0.90;90.00;;;;;;5038344;28;20086;-74
2023/12/01 10:47:27;;;;;;;52.28;23.83;;;0.90;89.80;;;;;;5041617;28;20162;-73
2023/12/01 10:49:59;;;;;;;48.72;23.08;;;1.00;89.70;;;;;;5033794;28;20075;-74
2023/12/01 10:52:25;;;;;;;52.88;24.70;;;1.00;89.60;;;;;;5043341;28;20473;-72
2023/12/01 10:54:51;;;;;;;50.97;24.02;;;1.10;89.60;;;;;;5036704;28;20037;-74
2023/12/01 10:57:39;;;;;;;53.67;23.17;;;1.10;89.20;;;;;;5042427;28;20025;-74
2023/12/01 11:00:09;;;;;;;51.67;24.30;;;1.10;89.20;;;;;;5042694;28;20120;-75
2023/12/01 11:02:38;;;;;;;50.30;25.23;;;1.10;89.00;;;;;;5044051;28;20438;-74
2023/12/01 11:05:07;;;;;;;49.67;24.60;;;1.20;89.30;;;;;;5039829;28;20028;-75
2023/12/01 11:07:42;;;;;;;48.88;24.45;;;1.30;89.30;;;;;;5046393;28;20040;-74
2023/12/01 11:10:25;;;;;;;55.95;25.42;;;1.40;89.20;;;;;;5031528;28;20383;-75
2023/12/01 11:13:28;;;;;;;48.83;24.73;;;1.30;88.70;;;;;;5042456;28;20048;-74
2023/12/01 11:15:55;;;;;;;53.58;27.10;;;1.10;88.60;;;;;;5038492;28;20114;-75
2023/12/01 11:18:23;;;;;;;51.67;27.20;;;1.10;88.90;;;;;;5043006;28;20563;-73
2023/12/01 11:20:52;;;;;;;55.08;28.55;;;1.00;88.80;;;;;;5040987;28;20033;-73
2023/12/01 11:23:24;;;;;;;56.38;27.77;;;0.90;89.00;;;;;;5040877;28;20029;-74
2023/12/01 11:26:05;;;;;;;57.08;28.13;;;0.80;89.00;;;;;;5036584;28;20643;-74
2023/12/01 11:31:19;;;;;;;60.33;28.25;;;0.90;89.00;;;;;;5039055;28;20185;-77
2023/12/01 11:33:56;;;;;;;56.50;27.38;;;0.80;89.10;;;;;;5035687;28;20654;-73
2023/12/01 11:36:22;;;;;;;56.25;27.90;;;0.90;89.40;;;;;;5036926;28;20052;-74
2023/12/01 11:39:09;;;;;;;58.50;29.30;;;0.90;89.30;;;;;;5055474;28;20053;-76
2023/12/01 11:41:41;;;;;;;62.65;29.83;;;0.90;88.80;;;;;;5051193;28;20106;-74
2023/12/01 11:44:10;;;;;;;68.20;30.33;;;0.90;89.00;;;;;;5040998;28;20041;-76
2023/12/01 11:46:39;;;;;;;68.43;30.48;;;0.80;89.30;;;;;;5031419;28;20041;-74
2023/12/01 11:49:14;;;;;;;60.25;29.00;;;0.90;89.60;;;;;;5038792;28;20044;-74
2023/12/01 11:51:40;;;;;;;;;;;0.80;89.30;;;;;;5037049;28;20515;-73
2023/12/01 11:54:06;;;;;;;62.28;28.20;;;0.70;89.20;;;;;;5039350;28;20400;-74
2023/12/01 11:56:32;;;;;;;59.95;29.15;;;0.80;89.20;;;;;;5037112;28;20068;-75
2023/12/01 11:58:58;;;;;;;60.30;27.98;;;0.80;89.40;;;;;;5034126;28;20390;-74
2023/12/01 12:01:24;;;;;;;58.70;29.30;;;0.80;89.10;;;;;;5036645;28;20310;-73
2023/12/01 12:03:57;;;;;;;61.70;29.33;;;0.70;88.90;;;;;;5036402;28;20104;-75
2023/12/01 12:06:24;;;;;;;61.05;30.95;;;0.70;88.90;;;;;;5035711;28;20053;-73
2023/12/01 12:08:52;;;;;;;59.17;29.63;;;0.70;88.90;;;;;;5030171;28;20041;-74
2023/12/01 12:11:19;;;;;;;58.08;29.90;;;0.70;88.60;;;;;;5037166;28;20363;-74
2023/12/01 12:13:52;;;;;;;69.72;32.80;;;0.80;88.90;;;;;;5039189;28;20061;-74
2023/12/01 12:16:20;;;;;;;67.20;32.67;;;0.80;88.80;;;;;;5033786;28;20087;-74
2023/12/01 12:18:48;;;;;;;62.20;30.42;;;0.80;88.80;;;;;;5041528;28;20100;-74
2023/12/01 12:21:14;;;;;;;61.20;32.30;;;0.80;89.00;;;;;;5037526;28;20029;-75
2023/12/01 12:23:40;;;;;;;61.55;31.10;;;0.70;88.90;;;;;;5040239;28;20095;-74
2023/12/01 12:26:20;;;;;;;59.60;29.25;;;0.70;89.10;;;;;;5038640;28;20128;-73
2023/12/01 12:28:54;;;;;;;70.88;30.92;;;0.70;89.10;;;;;;5036880;28;20509;-75
2023/12/01 12:31:23;;;;;;;;;;;0.80;89.40;;;;;;5038180;28;20522;-74
2023/12/01 12:33:49;;;;;;;63.15;27.55;;;0.80;89.40;;;;;;5036861;28;20051;-75
2023/12/01 12:36:16;;;;;;;69.90;30.10;;;0.80;89.30;;;;;;5041361;28;20136;-73
2023/12/01 12:38:41;;;;;;;65.75;29.60;;;1.00;89.40;;;;;;5035817;28;20045;-74
2023/12/01 12:41:31;;;;;;;66.72;31.17;;;1.00;89.40;;;;;;5036388;28;20493;-74
2023/12/01 12:44:02;;;;;;;66.32;30.83;;;1.10;89.20;;;;;;5029702;28;20065;-74